createdAt,value
2023-09-17T00:00:33.114Z,101780.63
2023-09-17T00:05:30.130Z,101734.97
2023-09-17T00:10:28.018Z,101784.53
2023-09-17T00:15:27.031Z,101789.97
2023-09-17T00:20:23.992Z,101793.09
2023-09-17T00:25:20.889Z,101786.88
2023-09-17T00:30:18.617Z,101794.63
2023-09-17T00:35:15.627Z,101802.44
2023-09-17T00:40:13.040Z,101783.25
2023-09-17T00:45:11.565Z,101771.34
2023-09-17T00:50:11.122Z,101789.81
2023-09-17T00:55:10.539Z,101772.16
2023-09-17T01:00:10.590Z,101766.44
2023-09-17T01:05:08.980Z,101782.94
2023-09-17T01:10:09.040Z,101782.22
2023-09-17T01:15:09.208Z,101761.03
2023-09-17T01:20:26.299Z,101780.75
2023-09-17T01:25:36.820Z,101780.84
2023-09-17T01:30:34.542Z,101785.69
2023-09-17T01:35:33.761Z,101746.16
2023-09-17T01:40:32.293Z,101764.28
2023-09-17T01:45:35.625Z,101768.13
2023-09-17T01:50:32.967Z,101741.13
2023-09-17T01:55:30.231Z,101761.03
2023-09-17T02:00:27.584Z,101755.72
2023-09-17T02:05:25.843Z,101740.72
2023-09-17T02:10:22.898Z,101761.41
2023-09-17T02:15:20.485Z,101691.78
2023-09-17T02:20:17.709Z,101754.19
2023-09-17T02:25:15.394Z,101762.06
2023-09-17T02:30:12.762Z,101757.19
2023-09-17T02:35:09.786Z,101758.53
2023-09-17T02:40:10.067Z,101690.28
2023-09-17T02:45:09.587Z,101766.53
2023-09-17T02:50:07.078Z,101764.84
2023-09-17T02:55:05.384Z,101771.25
2023-09-17T03:00:05.539Z,101765.41
2023-09-17T03:05:03.308Z,101756.00
2023-09-17T03:10:00.749Z,101745.03
2023-09-17T03:14:58.854Z,101753.88
2023-09-17T03:19:55.935Z,101765.19
2023-09-17T03:25:03.748Z,101764.97
2023-09-17T03:30:04.334Z,101772.97
2023-09-17T03:35:02.524Z,101752.56
2023-09-17T03:40:09.903Z,101762.25
2023-09-17T03:45:10.520Z,101740.19
2023-09-17T03:50:09.425Z,101741.69
2023-09-17T03:55:10.434Z,101764.50
2023-09-17T04:00:10.797Z,101720.78
2023-09-17T04:05:13.164Z,101736.25
2023-09-17T04:10:11.713Z,101748.25
2023-09-17T04:15:13.606Z,101791.47
2023-09-17T04:20:11.709Z,101786.53
2023-09-17T04:25:11.671Z,101722.69
2023-09-17T04:30:12.466Z,101737.28
2023-09-17T04:35:11.189Z,101762.34
2023-09-17T04:40:09.599Z,101693.59
2023-09-17T04:45:11.288Z,101786.72
2023-09-17T04:50:10.421Z,101786.47
2023-09-17T04:55:08.807Z,101710.78
2023-09-17T05:00:12.511Z,101773.88
2023-09-17T05:05:10.903Z,101738.03
2023-09-17T05:10:11.935Z,101772.47
2023-09-17T05:15:17.711Z,101780.09
2023-09-17T05:20:31.195Z,101783.69
2023-09-17T05:25:28.736Z,101791.06
2023-09-17T05:30:26.154Z,101797.44
2023-09-17T05:35:23.522Z,101733.81
2023-09-17T05:40:23.911Z,101751.47
2023-09-17T05:45:20.928Z,101801.84
2023-09-17T05:50:19.429Z,101780.25
2023-09-17T05:55:18.019Z,101715.78
2023-09-17T06:00:20.233Z,101789.81
2023-09-17T06:05:20.433Z,101797.91
2023-09-17T06:10:28.311Z,101726.50
2023-09-17T06:15:27.190Z,101768.84
2023-09-17T06:20:24.463Z,101817.06
2023-09-17T06:25:26.640Z,101790.88
2023-09-17T06:30:25.456Z,101773.44
2023-09-17T06:35:23.576Z,101788.19
2023-09-17T06:40:21.930Z,101816.81
2023-09-17T06:45:21.651Z,101840.59
2023-09-17T06:50:18.774Z,101851.13
2023-09-17T06:55:16.798Z,101821.63
2023-09-17T07:00:14.963Z,101837.03
2023-09-17T07:05:12.826Z,101805.78
2023-09-17T07:10:10.401Z,101764.63
2023-09-17T07:15:10.921Z,101830.75
2023-09-17T07:20:08.832Z,101829.75
2023-09-17T07:25:06.269Z,101785.75
2023-09-17T07:30:03.956Z,101853.66
2023-09-17T07:35:03.424Z,101853.81
2023-09-17T07:40:02.277Z,101829.59
2023-09-17T07:44:59.446Z,101858.66
2023-09-17T07:49:56.698Z,101800.09
2023-09-17T07:54:54.773Z,101817.88
2023-09-17T07:59:53.713Z,101764.31
2023-09-17T08:04:50.650Z,101851.75
2023-09-17T08:09:47.584Z,101846.56
2023-09-17T08:14:46.966Z,101809.34
2023-09-17T08:19:44.061Z,101817.81
2023-09-17T08:24:41.159Z,101819.47
2023-09-17T08:29:38.233Z,101807.25
2023-09-17T08:34:36.516Z,101816.34
2023-09-17T08:39:33.645Z,101742.50
2023-09-17T08:44:32.330Z,101772.66
2023-09-17T08:49:29.989Z,101819.38
2023-09-17T08:54:34.550Z,101767.69
2023-09-17T08:59:34.774Z,101813.81
2023-09-17T09:04:35.402Z,101788.63
2023-09-17T09:09:36.641Z,101781.00
2023-09-17T09:14:33.681Z,101802.38
2023-09-17T09:19:31.031Z,101783.94
2023-09-17T09:24:30.107Z,101798.28
2023-09-17T09:29:30.004Z,101805.97
2023-09-17T09:34:28.655Z,101786.69
2023-09-17T09:39:25.571Z,101756.53
2023-09-17T09:44:27.934Z,101787.53
2023-09-17T09:49:25.988Z,101756.84
2023-09-17T09:54:22.888Z,101794.00
2023-09-17T09:59:21.898Z,101758.69
2023-09-17T10:04:19.653Z,101756.75
2023-09-17T10:09:33.211Z,101739.59
2023-09-17T10:14:57.487Z,101772.22
2023-09-17T10:19:58.347Z,101742.81
2023-09-17T10:24:56.470Z,101761.78
2023-09-17T10:29:56.343Z,101783.22
2023-09-17T10:34:58.064Z,101762.22
2023-09-17T10:39:57.769Z,101754.66
2023-09-17T10:44:56.742Z,101772.53
2023-09-17T10:49:54.141Z,101706.38
2023-09-17T10:54:56.668Z,101743.47
2023-09-17T10:59:56.707Z,101673.31
2023-09-17T11:04:54.201Z,101728.59
2023-09-17T11:09:51.882Z,101751.25
2023-09-17T11:14:48.910Z,101724.03
2023-09-17T11:19:48.308Z,101738.72
2023-09-17T11:24:53.824Z,101753.09
2023-09-17T11:29:51.121Z,101707.31
2023-09-17T11:34:53.240Z,101711.16
2023-09-17T11:39:51.509Z,101688.88
2023-09-17T11:44:49.113Z,101675.41
2023-09-17T11:49:47.597Z,101726.72
2023-09-17T11:54:51.529Z,101716.44
2023-09-17T11:59:48.616Z,101707.78
2023-09-17T12:04:46.801Z,101681.28
2023-09-17T12:10:03.131Z,101680.38
2023-09-17T12:15:00.607Z,101639.53
2023-09-17T12:20:57.782Z,101678.06
2023-09-17T12:25:55.609Z,101673.16
2023-09-17T12:30:52.838Z,101640.72
2023-09-17T12:35:50.712Z,101668.75
2023-09-17T12:40:47.727Z,101662.69
2023-09-17T12:45:48.755Z,101662.69
2023-09-17T12:50:46.490Z,101642.16
2023-09-17T12:55:43.574Z,101652.75
2023-09-17T13:00:56.252Z,101657.84
2023-09-17T13:05:57.980Z,101624.72
2023-09-17T13:10:57.247Z,101607.78
2023-09-17T13:15:55.980Z,101588.63
2023-09-17T13:20:53.448Z,101584.66
2023-09-17T13:25:53.752Z,101631.78
2023-09-17T13:30:54.643Z,101597.06
2023-09-17T13:35:52.529Z,101612.22
2023-09-17T13:40:50.930Z,101552.00
2023-09-17T13:45:56.387Z,101606.16
2023-09-17T13:50:54.439Z,101613.59
2023-09-17T13:55:51.716Z,101619.16
2023-09-17T14:00:49.711Z,101601.44
2023-09-17T14:05:49.734Z,101569.19
2023-09-17T14:10:46.843Z,101587.91
2023-09-17T14:15:43.961Z,101615.97
2023-09-17T14:20:41.098Z,101550.78
2023-09-17T14:25:38.955Z,101567.34
2023-09-17T14:30:36.150Z,101594.84
2023-09-17T14:35:35.255Z,101599.75
2023-09-17T14:40:32.481Z,101588.06
2023-09-17T14:45:30.641Z,101614.91
2023-09-17T14:50:27.713Z,101608.47
2023-09-17T14:55:24.754Z,101565.88
2023-09-17T15:00:21.955Z,101613.31
2023-09-17T15:05:20.467Z,101523.72
2023-09-17T15:10:17.711Z,101569.81
2023-09-17T15:15:18.438Z,101572.44
2023-09-17T15:20:15.709Z,101563.75
2023-09-17T15:25:17.209Z,101604.56
2023-09-17T15:30:14.763Z,101617.50
2023-09-17T15:35:19.117Z,101616.63
2023-09-17T15:40:17.734Z,101597.75
2023-09-17T15:45:14.895Z,101620.53
2023-09-17T15:50:12.598Z,101612.47
2023-09-17T15:55:11.122Z,101626.66
2023-09-17T16:00:09.749Z,101583.41
2023-09-17T16:05:09.531Z,101626.47
2023-09-17T16:10:10.394Z,101600.50
2023-09-17T16:15:09.507Z,101628.34
2023-09-17T16:20:08.714Z,101586.50
2023-09-17T16:30:51.618Z,101647.91
2023-09-17T16:35:51.452Z,101654.06
2023-09-17T16:40:48.637Z,101632.47
2023-09-17T16:45:46.035Z,101579.50
2023-09-17T16:50:44.469Z,101639.09
2023-09-17T16:55:42.206Z,101665.13
2023-09-17T17:00:51.113Z,101631.47
2023-09-17T17:05:54.673Z,101640.38
2023-09-17T17:10:51.957Z,101628.28
2023-09-17T17:15:49.117Z,101645.25
2023-09-17T17:20:46.190Z,101663.47
2023-09-17T17:25:44.722Z,101688.66
2023-09-17T17:30:41.736Z,101641.03
2023-09-17T17:35:39.124Z,101673.81
2023-09-17T17:40:36.304Z,101680.84
2023-09-17T17:45:35.659Z,101705.19
2023-09-17T17:50:32.861Z,101705.84
2023-09-17T17:55:30.825Z,101716.69
2023-09-17T18:00:28.491Z,101680.63
2023-09-17T18:05:27.706Z,101733.66
2023-09-17T18:10:27.876Z,101721.59
2023-09-17T18:15:28.743Z,101740.69
2023-09-17T18:20:28.066Z,101744.06
2023-09-17T18:25:27.084Z,101718.13
2023-09-17T18:30:24.735Z,101764.03
2023-09-17T18:35:22.962Z,101769.19
2023-09-17T18:40:20.836Z,101768.63
2023-09-17T18:45:21.117Z,101697.66
2023-09-17T18:50:19.680Z,101754.69
2023-09-17T18:55:16.685Z,101758.31
2023-09-17T19:00:16.763Z,101766.78
2023-09-17T19:05:13.964Z,101765.78
2023-09-17T19:10:11.929Z,101712.31
2023-09-17T19:15:09.743Z,101706.16
2023-09-17T19:20:08.796Z,101749.72
2023-09-17T19:25:14.010Z,101782.19
2023-09-17T19:30:12.472Z,101774.16
2023-09-17T19:35:10.137Z,101776.88
2023-09-17T19:40:11.037Z,101778.13
2023-09-17T19:45:09.119Z,101739.22
2023-09-17T19:50:07.871Z,101751.66
2023-09-17T19:55:07.043Z,101742.94
2023-09-17T20:00:07.114Z,101785.16
2023-09-17T20:05:14.586Z,101780.00
2023-09-17T20:10:15.696Z,101734.00
2023-09-17T20:15:14.127Z,101680.50
2023-09-17T20:20:12.653Z,101788.09
2023-09-17T20:25:10.285Z,101732.78
2023-09-17T20:30:09.642Z,101783.06
2023-09-17T20:35:10.345Z,101782.78
2023-09-17T20:40:08.532Z,101687.41
2023-09-17T20:45:06.701Z,101769.91
2023-09-17T20:50:06.355Z,101741.31
2023-09-17T20:55:06.057Z,101734.84
2023-09-17T21:00:05.634Z,101787.38
2023-09-17T21:05:03.317Z,101767.81
2023-09-17T21:10:00.966Z,101782.66
2023-09-17T21:14:57.933Z,101755.69
2023-09-17T21:19:54.868Z,101779.25
2023-09-17T21:24:51.943Z,101760.91
2023-09-17T21:29:49.664Z,101744.56
2023-09-17T21:34:46.646Z,101786.97
2023-09-17T21:39:43.701Z,101751.13
2023-09-17T21:44:40.885Z,101776.50
2023-09-17T21:49:38.669Z,101777.06
2023-09-17T21:54:35.563Z,101739.88
2023-09-17T21:59:32.581Z,101727.16
2023-09-17T22:04:30.232Z,101731.66
2023-09-17T22:09:27.845Z,101758.28
2023-09-17T22:14:24.995Z,101700.69
2023-09-17T22:19:22.126Z,101760.47
2023-09-17T22:24:19.073Z,101779.53
2023-09-17T22:29:16.855Z,101712.59
2023-09-17T22:34:13.743Z,101756.72
2023-09-17T22:39:13.386Z,101702.47
2023-09-17T22:44:23.016Z,101775.03
2023-09-17T22:49:23.598Z,101763.81
2023-09-17T22:54:20.557Z,101769.22
2023-09-17T22:59:17.444Z,101772.31
2023-09-17T23:04:14.378Z,101773.56
2023-09-17T23:09:12.055Z,101773.28
2023-09-17T23:14:09.826Z,101754.13
2023-09-17T23:19:06.844Z,101732.81
2023-09-17T23:24:07.620Z,101733.50
2023-09-17T23:29:08.910Z,101783.88
2023-09-17T23:34:06.189Z,101776.50
2023-09-17T23:39:04.056Z,101765.38
2023-09-17T23:44:01.875Z,101763.50
2023-09-17T23:48:59.605Z,101764.06
2023-09-17T23:53:57.833Z,101682.34
2023-09-17T23:58:55.109Z,101713.66
